Weather at Lądowisko Donimierz

Public forecast

Using degrees Celsius for public forecast. Weather courtesy of forecast.io.

Closest aviation weather report (METAR) to Lądowisko Donimierz

Closest report is Gdańsk Lech Wałęsa Airport, 12.3 nm (22.7 km) ESE. Retrieved 2021/06/23 01:00 UTC (33 minutes ago):

EPGD 230100Z 28006KT 9999 FEW032 15/14 Q1015

Closest aviation forecast (TAF) to Lądowisko Donimierz

Closest forecast is Gdańsk Lech Wałęsa Airport, 12.3 nm (22.7 km) ESE. Retrieved 2021-06-23 00:37 UTC (56 minutes ago):

TAF EPGD 222330Z 2300/2324 29010KT CAVOK PROB40 TEMPO 2300/2305 -SHRA SCT030CB BECMG 2315/2318 VRB02KT